Time;durP1;ratioP1;P1;durP2;ratioP2;P2;SDS_P1;SDS_P2;PMS_P1;PMS_P2;Temp;Humidity;BMP_temperature;BMP_pressure;BME280_temperature;BME280_humidity;BME280_pressure;Samples;Min_cycle;Max_cycle;Signal;HPM_P1;HPM_P2
2021/04/17 00:01:38;;;;;;;5.25;4.42;;;;;;;6.04;88.45;100379.95;1783023;78;21179;-68
2021/04/17 00:04:06;;;;;;;7.03;5.08;;;;;;;6.04;88.46;100372.80;1781113;79;21173;-68
2021/04/17 00:06:36;;;;;;;5.62;4.67;;;;;;;6.03;88.50;100380.48;1791452;79;21227;-67
2021/04/17 00:09:13;;;;;;;6.53;5.17;;;;;;;6.04;88.57;100375.98;1775857;79;21819;-67
2021/04/17 00:11:44;;;;;;;5.90;4.53;;;;;;;6.05;88.61;100378.91;1788197;79;21758;-68
2021/04/17 00:14:19;;;;;;;7.10;5.33;;;;;;;6.09;88.65;100378.75;1805719;78;21156;-68
2021/04/17 00:16:50;;;;;;;6.58;4.87;;;;;;;6.13;88.68;100380.42;1779469;79;21203;-68
2021/04/17 00:19:18;;;;;;;5.90;4.72;;;;;;;6.14;88.58;100383.35;1815305;78;21187;-67
2021/04/17 00:21:46;;;;;;;6.87;4.72;;;;;;;6.08;88.53;100385.87;1777464;78;21830;-68
2021/04/17 00:24:14;;;;;;;5.50;4.62;;;;;;;6.05;88.54;100382.88;1780340;78;21184;-68
2021/04/17 00:26:42;;;;;;;6.35;4.80;;;;;;;6.04;88.56;100384.73;1811235;78;21160;-68
2021/04/17 00:29:09;;;;;;;5.58;4.50;;;;;;;6.07;88.61;100385.60;1774134;79;21156;-68
2021/04/17 00:31:38;;;;;;;6.95;5.00;;;;;;;6.09;88.58;100390.16;1783116;78;21183;-67
2021/04/17 00:34:06;;;;;;;6.08;4.95;;;;;;;6.08;88.57;100389.05;1772790;80;21380;-68
2021/04/17 00:36:35;;;;;;;7.00;5.83;;;;;;;6.07;88.59;100392.23;1780983;79;21171;-68
2021/04/17 00:39:04;;;;;;;6.53;5.58;;;;;;;6.07;88.57;100388.77;1787271;80;21279;-67
2021/04/17 00:41:34;;;;;;;6.78;5.22;;;;;;;6.09;88.56;100394.14;1777600;80;21172;-68
2021/04/17 00:44:03;;;;;;;8.25;5.92;;;;;;;6.13;88.56;100389.18;1744836;80;21711;-68
2021/04/17 00:46:32;;;;;;;7.30;5.12;;;;;;;6.13;88.48;100391.03;1754313;80;21390;-68
2021/04/17 00:49:03;;;;;;;7.30;5.17;;;;;;;6.09;88.46;100389.36;1809047;78;21148;-68
2021/04/17 00:51:32;;;;;;;8.93;6.28;;;;;;;6.04;88.46;100392.69;1782722;78;21193;-67
2021/04/17 00:54:00;;;;;;;7.55;6.22;;;;;;;6.01;88.49;100393.67;1772881;79;21683;-67
2021/04/17 00:56:28;;;;;;;8.30;6.60;;;;;;;6.00;88.52;100394.19;1771873;80;21127;-68
2021/04/17 00:58:56;;;;;;;7.50;6.10;;;;;;;5.99;88.54;100395.73;1793203;78;21380;-67
2021/04/17 01:01:24;;;;;;;7.45;5.83;;;;;;;6.00;88.57;100400.02;1791838;78;21092;-67
2021/04/17 01:04:16;;;;;;;8.83;6.92;;;;;;;6.01;88.54;100402.95;1775481;80;21092;-67
2021/04/17 01:06:49;;;;;;;9.13;6.87;;;;;;;6.00;88.55;100398.17;1765406;80;21224;-68
2021/04/17 01:09:44;;;;;;;7.58;6.10;;;;;;;6.00;88.55;100400.82;1799931;79;21137;-67
2021/04/17 01:12:16;;;;;;;8.63;6.62;;;;;;;5.96;88.51;100401.00;1772062;79;21425;-66
2021/04/17 01:14:48;;;;;;;8.55;6.40;;;;;;;5.96;88.57;100396.22;1777544;79;21116;-67
2021/04/17 01:17:15;;;;;;;8.25;6.58;;;;;;;5.94;88.53;100396.95;1773710;78;21597;-68
2021/04/17 01:20:01;;;;;;;7.90;6.60;;;;;;;5.92;88.52;100401.64;1787508;80;21611;-68
2021/04/17 01:22:30;;;;;;;8.20;7.33;;;;;;;5.91;88.57;100400.84;1793073;79;21122;-67
2021/04/17 01:25:12;;;;;;;9.15;6.87;;;;;;;5.92;88.58;100402.44;1763885;80;22284;-67
2021/04/17 01:27:40;;;;;;;8.28;6.75;;;;;;;5.90;88.58;100403.73;1764038;80;21152;-66
2021/04/17 01:30:15;;;;;;;7.58;6.25;;;;;;;5.87;88.62;100400.49;1787824;79;21582;-68
2021/04/17 01:32:43;;;;;;;7.90;6.53;;;;;;;5.84;88.63;100402.80;1805498;78;21168;-67
2021/04/17 01:35:14;;;;;;;7.50;5.97;;;;;;;5.86;88.77;100407.36;1806702;78;21105;-67
2021/04/17 01:37:59;;;;;;;7.95;6.65;;;;;;;5.86;88.74;100410.81;1760952;79;21376;-67
2021/04/17 01:40:28;;;;;;;8.03;6.55;;;;;;;5.84;88.78;100414.72;1797400;79;21226;-66
2021/04/17 01:42:56;;;;;;;8.65;7.00;;;;;;;5.83;88.84;100413.92;1806063;78;21159;-67
2021/04/17 01:45:26;;;;;;;8.03;5.90;;;;;;;5.83;88.90;100415.77;1800277;78;21234;-67
2021/04/17 01:47:56;;;;;;;7.85;6.67;;;;;;;5.86;88.93;100424.07;1795429;78;21481;-67
2021/04/17 01:50:26;;;;;;;8.70;6.67;;;;;;;5.87;88.95;100423.02;1777558;79;22341;-66
2021/04/17 01:52:55;;;;;;;8.63;7.00;;;;;;;5.89;88.97;100418.84;1782676;79;21187;-65
2021/04/17 01:55:24;;;;;;;8.75;6.95;;;;;;;5.88;88.96;100424.63;1756657;79;21730;-66
2021/04/17 01:57:52;;;;;;;8.23;6.40;;;;;;;5.87;88.97;100416.40;1784880;79;21591;-68
2021/04/17 02:00:21;;;;;;;8.00;6.53;;;;;;;5.92;89.00;100418.88;1786754;79;21556;-66
2021/04/17 02:02:50;;;;;;;8.85;6.92;;;;;;;5.93;88.97;100423.19;1782839;79;21393;-67
2021/04/17 02:05:19;;;;;;;8.23;6.53;;;;;;;5.92;88.96;100424.98;1747913;79;21184;-66
2021/04/17 02:07:47;;;;;;;8.05;6.28;;;;;;;5.91;89.00;100430.00;1770435;79;21146;-67
2021/04/17 02:10:15;;;;;;;9.18;6.97;;;;;;;5.92;89.07;100428.15;1788126;78;21191;-66
2021/04/17 02:12:45;;;;;;;9.03;6.55;;;;;;;5.92;89.10;100421.52;1811916;78;21061;-67
2021/04/17 02:15:13;;;;;;;8.15;6.50;;;;;;;5.93;89.10;100421.86;1767935;80;21192;-68
2021/04/17 02:18:03;;;;;;;9.88;7.10;;;;;;;5.91;89.12;100430.00;1745237;80;21200;-67
2021/04/17 02:20:42;;;;;;;8.43;6.22;;;;;;;5.91;89.19;100427.87;1779327;80;22399;-66
2021/04/17 02:23:10;;;;;;;9.50;7.05;;;;;;;5.93;89.24;100426.64;1807509;78;21163;-67
2021/04/17 02:25:38;;;;;;;7.95;6.30;;;;;;;5.95;89.21;100443.11;1775923;79;21583;-67
2021/04/17 02:28:07;;;;;;;8.00;6.62;;;;;;;5.94;89.20;100436.20;1794234;79;21271;-66
2021/04/17 02:30:37;;;;;;;7.17;5.90;;;;;;;5.93;89.20;100439.09;1794610;79;21028;-66
2021/04/17 02:33:05;;;;;;;9.15;7.10;;;;;;;5.94;89.23;100442.83;1808873;78;21128;-66
2021/04/17 02:35:33;;;;;;;8.63;6.70;;;;;;;5.92;89.21;100437.42;1758926;79;22600;-67
2021/04/17 02:38:01;;;;;;;7.45;6.20;;;;;;;5.91;89.25;100444.58;1776629;79;21160;-67
2021/04/17 02:40:30;;;;;;;8.35;6.17;;;;;;;5.91;89.23;100449.88;1789414;79;21161;-67
2021/04/17 02:42:58;;;;;;;7.05;6.03;;;;;;;5.90;89.20;100447.47;1778368;79;21619;-67
2021/04/17 02:45:26;;;;;;;8.55;7.17;;;;;;;5.88;89.19;100455.11;1781984;79;21612;-66
2021/04/17 02:47:54;;;;;;;8.30;6.67;;;;;;;5.86;89.19;100449.25;1808054;78;21056;-67
2021/04/17 02:50:23;;;;;;;8.03;6.28;;;;;;;5.87;89.22;100457.48;1764548;79;21069;-66
2021/04/17 02:52:51;;;;;;;9.45;7.40;;;;;;;5.86;89.22;100457.20;1788437;79;21264;-67
2021/04/17 02:55:19;;;;;;;7.00;5.78;;;;;;;5.85;89.22;100459.55;1793122;78;21141;-66
2021/04/17 02:57:47;;;;;;;8.63;6.50;;;;;;;5.85;89.24;100460.87;1788049;79;21188;-66
2021/04/17 03:00:22;;;;;;;8.23;6.47;;;;;;;5.85;89.26;100458.22;1791654;79;21166;-66
2021/04/17 03:02:52;;;;;;;7.12;5.65;;;;;;;5.85;89.27;100468.82;1790244;80;21489;-65
2021/04/17 03:05:22;;;;;;;9.75;7.55;;;;;;;5.85;89.27;100468.82;1790120;78;21318;-67
2021/04/17 03:07:50;;;;;;;8.15;6.10;;;;;;;5.86;89.34;100475.76;1781460;79;21129;-65
2021/04/17 03:10:19;;;;;;;9.23;7.67;;;;;;;5.90;89.38;100481.41;1814428;78;21520;-65
2021/04/17 03:12:47;;;;;;;9.00;6.70;;;;;;;5.95;89.42;100480.75;1792282;78;21153;-67
2021/04/17 03:15:16;;;;;;;8.80;7.03;;;;;;;5.99;89.38;100477.92;1780358;78;21153;-67
2021/04/17 03:17:44;;;;;;;9.58;7.40;;;;;;;6.01;89.36;100479.84;1785705;78;21375;-67
2021/04/17 03:20:13;;;;;;;8.38;6.90;;;;;;;6.05;89.41;100483.12;1821360;78;21572;-69
2021/04/17 03:22:41;;;;;;;8.28;7.08;;;;;;;6.07;89.30;100483.70;1810032;78;21057;-66
2021/04/17 03:25:12;;;;;;;8.48;6.90;;;;;;;6.08;89.30;100491.94;1804123;78;21152;-68
2021/04/17 03:27:40;;;;;;;8.13;6.50;;;;;;;6.07;89.25;100493.51;1767809;80;21089;-67
2021/04/17 03:30:11;;;;;;;9.88;7.08;;;;;;;6.06;89.27;100491.37;1804188;78;21191;-67
2021/04/17 03:32:39;;;;;;;8.70;6.80;;;;;;;6.03;89.23;100497.14;1788282;79;21173;-67
2021/04/17 03:35:08;;;;;;;10.28;7.28;;;;;;;6.05;89.26;100500.35;1818224;78;21624;-67
2021/04/17 03:37:37;;;;;;;9.40;7.00;;;;;;;6.04;89.25;100496.09;1806515;78;21660;-66
2021/04/17 03:40:07;;;;;;;8.38;6.42;;;;;;;6.06;89.25;100510.47;1815807;78;21188;-67
2021/04/17 03:42:35;;;;;;;8.93;6.37;;;;;;;6.06;89.28;100503.84;1789195;79;22421;-67
2021/04/17 03:45:05;;;;;;;7.45;5.45;;;;;;;6.08;89.24;100505.72;1788563;78;21274;-67
2021/04/17 03:47:34;;;;;;;7.87;6.22;;;;;;;6.09;89.24;100506.84;1779499;79;21081;-67
2021/04/17 03:50:05;;;;;;;7.85;6.30;;;;;;;6.08;89.25;100510.50;1771412;79;21192;-67
2021/04/17 03:52:34;;;;;;;8.65;6.90;;;;;;;6.08;89.21;100513.16;1792834;78;21148;-67
2021/04/17 03:55:07;;;;;;;7.97;6.30;;;;;;;6.06;89.20;100511.27;1785702;78;22136;-67
2021/04/17 03:57:37;;;;;;;7.58;5.83;;;;;;;6.08;89.23;100517.13;1773040;80;21136;-66
2021/04/17 04:00:08;;;;;;;8.98;7.10;;;;;;;6.09;89.23;100521.42;1766368;79;21113;-67
2021/04/17 04:02:36;;;;;;;7.95;6.15;;;;;;;6.10;89.23;100519.05;1796323;78;21191;-67
2021/04/17 04:05:06;;;;;;;7.97;6.28;;;;;;;6.09;89.22;100525.92;1787534;78;21193;-67
2021/04/17 04:07:34;;;;;;;7.42;6.33;;;;;;;6.11;89.24;100531.78;1813265;78;21867;-67
2021/04/17 04:10:04;;;;;;;7.20;5.72;;;;;;;6.09;89.21;100532.55;1769506;80;21138;-67
2021/04/17 04:12:32;;;;;;;6.58;5.67;;;;;;;6.09;89.24;100532.55;1787832;80;21065;-67
2021/04/17 04:15:01;;;;;;;8.40;6.55;;;;;;;6.08;89.26;100534.37;1789175;80;21162;-67
2021/04/17 04:17:29;;;;;;;8.60;6.40;;;;;;;6.09;89.26;100543.16;1787927;78;21128;-66
2021/04/17 04:19:58;;;;;;;7.78;6.45;;;;;;;6.15;89.34;100543.55;1790943;79;21378;-68
2021/04/17 04:22:25;;;;;;;7.78;6.65;;;;;;;6.20;89.35;100546.34;1771555;80;21561;-67
2021/04/17 04:24:53;;;;;;;8.70;7.00;;;;;;;6.21;89.33;100555.91;1783264;80;21215;-67
2021/04/17 04:27:21;;;;;;;8.13;6.55;;;;;;;6.24;89.33;100552.80;1800703;78;23611;-67
2021/04/17 04:29:49;;;;;;;8.18;6.72;;;;;;;6.29;89.35;100554.26;1788747;80;21159;-66
2021/04/17 04:32:18;;;;;;;6.78;5.42;;;;;;;6.33;89.36;100558.06;1786230;78;21406;-66
2021/04/17 04:34:47;;;;;;;7.15;5.80;;;;;;;6.37;89.33;100557.61;1789372;80;21680;-66
2021/04/17 04:37:15;;;;;;;7.67;6.60;;;;;;;6.39;89.30;100551.56;1780462;78;21113;-66
2021/04/17 04:39:42;;;;;;;7.05;6.05;;;;;;;6.38;89.17;100559.22;1774246;80;21109;-67
2021/04/17 04:42:11;;;;;;;8.33;6.15;;;;;;;6.36;89.18;100557.33;1810585;79;21108;-66
2021/04/17 04:44:39;;;;;;;8.33;5.95;;;;;;;6.39;89.19;100551.05;1785701;80;21486;-67
2021/04/17 04:47:08;;;;;;;7.53;6.22;;;;;;;6.44;89.17;100557.78;1762019;80;21599;-67
2021/04/17 04:49:37;;;;;;;7.78;6.37;;;;;;;6.44;89.13;100553.00;1774613;80;21172;-67
2021/04/17 04:52:06;;;;;;;6.67;5.70;;;;;;;6.46;89.23;100563.67;1788553;79;21165;-67
2021/04/17 04:54:34;;;;;;;7.55;6.00;;;;;;;6.52;89.23;100561.96;1788357;80;21139;-67
2021/04/17 04:57:02;;;;;;;7.08;5.42;;;;;;;6.54;89.14;100565.17;1775866;78;21240;-66
2021/04/17 04:59:29;;;;;;;7.40;6.03;;;;;;;6.59;89.14;100567.96;1795163;79;21155;-67
2021/04/17 05:01:57;;;;;;;8.25;6.25;;;;;;;6.60;89.09;100575.40;1790470;80;21129;-66
2021/04/17 05:04:25;;;;;;;7.95;6.20;;;;;;;6.62;89.06;100577.31;1767297;80;21151;-67
2021/04/17 05:06:52;;;;;;;8.63;6.67;;;;;;;6.64;89.00;100576.55;1767133;80;21730;-67
2021/04/17 05:09:21;;;;;;;7.15;6.08;;;;;;;6.65;89.04;100584.30;1776906;80;21140;-67
2021/04/17 05:11:49;;;;;;;6.78;5.25;;;;;;;6.69;89.02;100576.16;1776223;80;21199;-66
2021/04/17 05:14:17;;;;;;;7.25;5.75;;;;;;;6.72;88.91;100590.30;1763422;80;21239;-67
2021/04/17 05:16:47;;;;;;;7.08;6.03;;;;;;;6.70;88.85;100584.39;1810437;78;21191;-66
2021/04/17 05:19:16;;;;;;;6.50;5.28;;;;;;;6.74;88.89;100592.18;1770096;80;21140;-68
2021/04/17 05:21:43;;;;;;;6.37;5.10;;;;;;;6.80;88.88;100593.11;1765837;80;21337;-65
2021/04/17 05:24:11;;;;;;;6.78;5.33;;;;;;;6.80;88.80;100592.59;1797078;79;21104;-66
2021/04/17 05:26:39;;;;;;;6.95;5.28;;;;;;;6.79;88.79;100596.30;1819167;78;21125;-67
2021/04/17 05:29:07;;;;;;;6.20;5.15;;;;;;;6.83;88.77;100593.17;1788788;78;21168;-67
2021/04/17 05:31:35;;;;;;;6.50;4.53;;;;;;;6.81;88.67;100599.53;1779313;79;21136;-66
2021/04/17 05:34:06;;;;;;;5.50;3.90;;;;;;;6.84;88.66;100601.42;1778628;79;21632;-66
2021/04/17 05:36:35;;;;;;;5.42;4.30;;;;;;;6.84;88.61;100601.42;1772846;79;21195;-67
2021/04/17 05:39:04;;;;;;;4.90;4.10;;;;;;;6.84;88.56;100600.09;1784094;79;21106;-67
2021/04/17 05:41:33;;;;;;;5.67;4.25;;;;;;;6.86;88.61;100604.14;1791347;78;21097;-67
2021/04/17 05:44:10;;;;;;;4.92;4.05;;;;;;;6.87;88.57;100603.09;1820062;78;21484;-67
2021/04/17 05:46:30;;;;;;;5.22;4.03;;;;;;;6.93;88.59;100602.70;1805173;78;21201;-66
2021/04/17 05:48:58;;;;;;;5.67;4.42;;;;;;;6.97;88.58;100606.50;1776995;79;21166;-67
2021/04/17 05:51:26;;;;;;;7.15;4.05;;;;;;;7.00;88.59;100611.34;1789742;79;21175;-67
2021/04/17 05:53:54;;;;;;;4.85;3.90;;;;;;;7.02;88.55;100615.92;1814281;78;21200;-66
2021/04/17 05:56:22;;;;;;;5.47;4.05;;;;;;;7.03;88.54;100617.00;1758239;79;21128;-68
2021/04/17 05:58:50;;;;;;;5.17;4.12;;;;;;;7.08;88.49;100618.17;1784923;78;21643;-67
2021/04/17 06:01:17;;;;;;;5.67;4.42;;;;;;;7.12;88.40;100621.98;1799969;79;21093;-68
2021/04/17 06:03:46;;;;;;;5.10;4.20;;;;;;;7.18;88.34;100625.84;1770985;80;21069;-67
2021/04/17 06:06:14;;;;;;;6.72;4.70;;;;;;;7.25;88.29;100625.19;1762639;80;21056;-67
2021/04/17 06:08:42;;;;;;;5.92;4.65;;;;;;;7.34;88.34;100623.49;1786323;79;21163;-67
2021/04/17 06:11:10;;;;;;;5.97;4.83;;;;;;;7.45;88.30;100623.48;1763270;79;21220;-67
2021/04/17 06:13:40;;;;;;;6.92;4.90;;;;;;;7.56;88.19;100626.34;1792019;79;21214;-66
2021/04/17 06:16:09;;;;;;;5.70;4.75;;;;;;;7.70;88.10;100632.50;1798375;78;21192;-67
2021/04/17 06:18:37;;;;;;;5.42;4.53;;;;;;;7.87;87.99;100623.78;1783151;78;21251;-67
2021/04/17 06:21:07;;;;;;;6.22;5.03;;;;;;;7.98;87.77;100624.24;1801229;78;21142;-67
2021/04/17 06:23:35;;;;;;;5.60;4.67;;;;;;;8.12;87.68;100626.89;1790048;80;21209;-66
2021/04/17 06:26:03;;;;;;;5.05;4.15;;;;;;;8.31;87.41;100626.69;1789602;78;22615;-67
2021/04/17 06:28:32;;;;;;;5.03;4.17;;;;;;;8.44;86.71;100629.87;1781251;80;21159;-67
2021/04/17 06:31:01;;;;;;;5.85;4.33;;;;;;;8.53;86.19;100634.30;1776783;80;21621;-67
2021/04/17 06:33:29;;;;;;;5.40;4.60;;;;;;;8.60;85.45;100626.95;1784025;78;21096;-67
2021/04/17 06:35:58;;;;;;;5.53;4.30;;;;;;;8.65;84.93;100638.19;1789020;79;21347;-68
2021/04/17 06:38:26;;;;;;;4.90;4.10;;;;;;;8.72;84.36;100635.37;1785380;79;21183;-67
2021/04/17 06:40:54;;;;;;;6.58;4.35;;;;;;;8.71;83.16;100639.09;1783643;79;21155;-68
2021/04/17 06:43:23;;;;;;;4.78;3.90;;;;;;;8.54;82.40;100641.22;1803008;78;21175;-68
2021/04/17 06:45:55;;;;;;;4.90;3.87;;;;;;;8.43;81.84;100643.44;1788812;79;21069;-66
2021/04/17 06:48:23;;;;;;;5.12;3.65;;;;;;;8.34;81.57;100639.52;1776674;79;21379;-67
2021/04/17 06:50:54;;;;;;;5.67;4.00;;;;;;;8.29;81.62;100646.91;1778603;78;21117;-67
2021/04/17 06:53:22;;;;;;;5.30;4.00;;;;;;;8.20;81.45;100642.48;1773774;78;21109;-67
2021/04/17 06:55:51;;;;;;;5.22;3.77;;;;;;;8.19;81.48;100642.70;1810464;78;21180;-67
2021/04/17 06:58:20;;;;;;;5.50;3.83;;;;;;;8.23;81.61;100649.98;1783642;79;21157;-66
2021/04/17 07:00:48;;;;;;;5.20;3.95;;;;;;;8.33;81.46;100649.89;1778551;78;21816;-68
2021/04/17 07:03:17;;;;;;;5.35;3.67;;;;;;;8.39;81.21;100654.27;1769394;80;21220;-67
2021/04/17 07:05:45;;;;;;;5.42;3.55;;;;;;;8.43;80.77;100654.09;1784497;79;21220;-68
2021/04/17 07:08:13;;;;;;;4.65;3.70;;;;;;;8.49;80.42;100654.47;1789611;78;21128;-67
2021/04/17 07:10:42;;;;;;;6.55;4.40;;;;;;;8.51;80.23;100652.88;1774643;80;21701;-67
2021/04/17 07:13:14;;;;;;;4.80;3.77;;;;;;;8.58;80.32;100660.98;1786403;78;21362;-67
2021/04/17 07:15:43;;;;;;;4.95;3.77;;;;;;;8.60;79.47;100664.75;1788161;78;21236;-67
2021/04/17 07:18:29;;;;;;;4.85;3.50;;;;;;;8.50;79.13;100668.58;1785349;79;21422;-67
2021/04/17 07:21:18;;;;;;;4.42;3.47;;;;;;;8.44;79.00;100675.66;1803331;78;21159;-67
2021/04/17 07:23:47;;;;;;;5.20;3.85;;;;;;;8.31;78.82;100667.41;1779850;80;21201;-69
2021/04/17 07:26:19;;;;;;;5.37;3.93;;;;;;;8.35;79.12;100676.53;1644352;80;9999649;-70
2021/04/17 07:29:13;;;;;;;4.85;3.87;;;;;;;8.46;79.20;100673.58;1769126;78;21220;-69
2021/04/17 07:31:38;;;;;;;6.20;3.60;;;;;;;8.55;79.08;100676.11;1773077;80;21203;-71
2021/04/17 07:34:21;;;;;;;5.33;3.95;;;;;;;8.60;78.68;100682.86;1731298;80;21215;-70
2021/04/17 07:37:00;;;;;;;5.28;4.30;;;;;;;8.52;78.02;100687.77;1783815;79;21707;-71
2021/04/17 07:39:38;;;;;;;5.37;4.17;;;;;;;8.45;78.02;100686.05;1818290;78;21302;-71
2021/04/17 07:42:17;;;;;;;5.00;3.85;;;;;;;8.45;77.76;100682.59;1791478;78;21061;-71
2021/04/17 07:44:46;;;;;;;5.28;4.35;;;;;;;8.48;77.63;100690.63;1793851;79;21747;-72
2021/04/17 07:47:32;;;;;;;4.90;4.08;;;;;;;8.53;77.83;100691.53;1787399;79;21195;-70
2021/04/17 07:50:09;;;;;;;5.12;4.00;;;;;;;8.66;77.80;100692.55;1778513;79;21366;-69
2021/04/17 07:52:38;;;;;;;6.47;4.17;;;;;;;8.81;77.57;100691.98;1808008;78;21216;-70
2021/04/17 07:55:10;;;;;;;4.35;3.45;;;;;;;8.90;77.39;100685.21;1769045;80;21180;-71
2021/04/17 07:57:55;;;;;;;5.00;3.37;;;;;;;9.05;76.76;100687.32;1806062;77;22661;-71
2021/04/17 08:00:24;;;;;;;5.20;3.47;;;;;;;9.04;76.37;100695.54;1776025;78;21188;-71
2021/04/17 08:02:52;;;;;;;4.10;3.12;;;;;;;9.00;75.75;100695.75;1752457;80;21359;-71
2021/04/17 08:05:24;;;;;;;5.22;3.72;;;;;;;8.92;75.50;100697.77;1753480;80;21184;-70
2021/04/17 08:07:52;;;;;;;3.87;3.20;;;;;;;8.86;75.41;100697.41;1745968;80;21176;-70
2021/04/17 08:10:21;;;;;;;4.72;3.65;;;;;;;8.82;75.47;100700.28;1748618;80;21196;-70
2021/04/17 08:12:49;;;;;;;5.47;3.58;;;;;;;8.86;75.53;100702.73;1721557;81;21208;-71
2021/04/17 08:15:19;;;;;;;4.20;3.30;;;;;;;8.90;75.41;100697.73;1711967;83;21810;-72
2021/04/17 08:17:49;;;;;;;3.95;3.00;;;;;;;8.91;75.37;100697.47;1719346;83;21466;-71
2021/04/17 08:20:18;;;;;;;4.70;3.52;;;;;;;8.97;75.33;100704.23;1720074;82;21195;-71
2021/04/17 08:22:49;;;;;;;4.62;3.27;;;;;;;9.01;75.22;100703.48;1712162;81;21202;-71
2021/04/17 08:25:24;;;;;;;4.78;3.25;;;;;;;9.05;75.18;100704.64;1715851;81;21168;-69
2021/04/17 08:27:53;;;;;;;4.78;3.20;;;;;;;9.05;75.19;100702.47;1718875;83;21374;-70
2021/04/17 08:30:27;;;;;;;4.70;3.37;;;;;;;9.08;75.02;100704.16;1720913;81;21200;-69
2021/04/17 08:32:55;;;;;;;5.10;3.83;;;;;;;9.16;74.70;100702.92;1717514;81;21244;-72
2021/04/17 08:35:25;;;;;;;4.17;3.10;;;;;;;9.23;74.33;100702.77;1571341;83;9999663;-70
2021/04/17 08:38:01;;;;;;;4.62;3.27;;;;;;;9.27;74.00;100700.68;1714735;83;21415;-70
2021/04/17 08:40:47;;;;;;;4.85;3.67;;;;;;;9.27;73.77;100704.68;1709400;83;21672;-70
2021/04/17 08:43:22;;;;;;;4.65;3.65;;;;;;;9.25;73.59;100706.00;1703638;81;21572;-72
2021/04/17 08:46:11;;;;;;;5.45;4.17;;;;;;;9.18;73.65;100701.34;1720167;81;21144;-69
2021/04/17 08:48:54;;;;;;;4.70;3.70;;;;;;;9.12;73.76;100705.28;1714375;82;21219;-69
2021/04/17 08:51:32;;;;;;;4.70;3.90;;;;;;;9.13;73.94;100706.08;1718591;81;22153;-70
2021/04/17 08:54:11;;;;;;;4.78;3.65;;;;;;;9.15;73.95;100710.66;1714629;81;21276;-69
2021/04/17 08:56:59;;;;;;;5.78;3.65;;;;;;;9.12;73.93;100705.28;1710894;81;21683;-70
2021/04/17 08:59:35;;;;;;;4.62;3.37;;;;;;;9.09;74.09;100707.63;1700828;82;21300;-69
2021/04/17 09:02:11;;;;;;;5.62;3.55;;;;;;;9.05;74.26;100709.97;1733087;80;21193;-69
2021/04/17 09:05:05;;;;;;;4.00;3.25;;;;;;;8.96;74.29;100710.61;1742804;80;21620;-69
2021/04/17 09:07:38;;;;;;;4.40;3.10;;;;;;;8.90;74.48;100709.72;1729585;80;22558;-71
2021/04/17 09:10:31;;;;;;;4.87;3.50;;;;;;;8.86;74.30;100708.06;1739592;81;21894;-69
2021/04/17 09:13:19;;;;;;;4.92;3.55;;;;;;;8.89;74.40;100710.77;1735454;80;21240;-69
2021/04/17 09:16:02;;;;;;;4.58;3.17;;;;;;;8.96;74.38;100715.41;1736908;80;21205;-69
2021/04/17 09:18:38;;;;;;;4.90;3.90;;;;;;;9.01;74.43;100712.01;1722882;80;21264;-69
2021/04/17 09:21:24;;;;;;;5.50;4.08;;;;;;;9.01;74.31;100715.48;1738689;80;21251;-69
2021/04/17 09:23:53;;;;;;;5.00;3.98;;;;;;;8.99;74.08;100712.27;1736935;80;21489;-69
2021/04/17 09:26:36;;;;;;;5.00;3.85;;;;;;;9.02;74.08;100720.30;1739106;80;21173;-69
2021/04/17 09:29:06;;;;;;;;;;;;;;;9.00;74.12;100715.20;1740391;81;21140;-69
2021/04/17 09:31:36;;;;;;;5.55;3.72;;;;;;;9.01;74.47;100716.00;1737180;82;22337;-68
2021/04/17 09:34:08;;;;;;;5.00;3.83;;;;;;;9.05;74.71;100721.13;1739247;80;21681;-70
2021/04/17 09:36:35;;;;;;;5.60;3.35;;;;;;;9.07;74.77;100721.70;1736302;80;21475;-70
2021/04/17 09:39:27;;;;;;;5.05;3.98;;;;;;;9.05;74.90;100727.28;1735970;80;21778;-69
2021/04/17 09:41:59;;;;;;;5.25;3.85;;;;;;;8.95;75.11;100725.80;1726371;81;21696;-69
2021/04/17 09:44:43;;;;;;;5.42;4.28;;;;;;;8.92;75.46;100717.75;1731851;80;21374;-69
2021/04/17 09:47:15;;;;;;;6.53;4.65;;;;;;;9.00;75.42;100719.73;1735446;80;21177;-69
2021/04/17 09:49:46;;;;;;;6.95;5.62;;;;;;;9.07;75.40;100723.84;1732059;81;21641;-70
2021/04/17 09:52:18;;;;;;;7.00;5.70;;;;;;;9.18;75.56;100725.32;1704999;82;21567;-70
2021/04/17 09:54:48;;;;;;;6.10;4.95;;;;;;;9.23;75.47;100722.22;1734123;80;21207;-69
2021/04/17 09:57:15;;;;;;;6.50;4.87;;;;;;;9.27;75.27;100726.00;1739335;81;22302;-68
2021/04/17 09:59:57;;;;;;;5.58;4.62;;;;;;;9.30;75.25;100725.52;1746563;80;21655;-69
2021/04/17 10:02:42;;;;;;;5.42;4.28;;;;;;;9.26;75.10;100728.92;1736405;80;21582;-69
2021/04/17 10:05:14;;;;;;;5.87;4.50;;;;;;;9.21;75.16;100732.30;1734211;80;21425;-69
2021/04/17 10:07:44;;;;;;;5.00;4.20;;;;;;;9.20;75.07;100736.56;1734724;80;21232;-67
2021/04/17 10:10:13;;;;;;;5.12;4.08;;;;;;;9.18;75.19;100739.98;1752559;80;21436;-69
2021/04/17 10:12:55;;;;;;;5.67;4.50;;;;;;;9.20;75.19;100736.56;1740448;81;21216;-69
2021/04/17 10:15:28;;;;;;;5.42;4.28;;;;;;;9.23;75.09;100743.54;1737655;80;21208;-69
2021/04/17 10:17:58;;;;;;;5.67;4.37;;;;;;;9.25;74.86;100739.31;1737519;81;21435;-69
2021/04/17 10:20:27;;;;;;;5.42;4.15;;;;;;;9.27;74.82;100742.52;1707204;83;21215;-69
2021/04/17 10:23:01;;;;;;;5.65;4.20;;;;;;;9.30;74.81;100752.70;1684419;82;21196;-70
2021/04/17 10:25:39;;;;;;;6.20;4.92;;;;;;;9.27;74.68;100748.66;1737939;80;21073;-70
2021/04/17 10:28:24;;;;;;;5.17;4.00;;;;;;;9.29;74.68;100755.90;1738505;80;21268;-68
2021/04/17 10:30:54;;;;;;;6.17;5.03;;;;;;;9.27;74.59;100753.98;1742066;80;21223;-70
2021/04/17 10:33:25;;;;;;;6.22;5.08;;;;;;;9.25;74.46;100755.31;1746683;80;21177;-69
2021/04/17 10:35:55;;;;;;;8.33;5.53;;;;;;;9.23;74.50;100757.40;1738778;80;21350;-69
2021/04/17 10:38:35;;;;;;;8.33;5.85;;;;;;;9.21;74.51;100759.48;1737645;80;21217;-70
2021/04/17 10:41:04;;;;;;;7.37;6.30;;;;;;;9.21;74.63;100756.82;1743599;80;21766;-69
2021/04/17 10:43:32;;;;;;;7.72;6.40;;;;;;;9.22;74.75;100761.12;1731192;80;21247;-69
2021/04/17 10:46:05;;;;;;;8.73;6.90;;;;;;;9.23;74.78;100759.53;1737796;80;21158;-69
2021/04/17 10:48:45;;;;;;;7.17;6.30;;;;;;;9.25;74.72;100767.30;1738753;80;21362;-70
2021/04/17 10:51:17;;;;;;;6.65;5.10;;;;;;;9.26;74.75;100764.38;1740339;80;21244;-69
2021/04/17 10:53:49;;;;;;;6.37;5.62;;;;;;;9.25;74.86;100773.44;1728889;81;21640;-68
2021/04/17 10:56:19;;;;;;;;;;;;;;;9.13;75.29;100774.03;1736276;80;21264;-70
2021/04/17 10:58:56;;;;;;;6.90;5.97;;;;;;;9.01;75.70;100774.62;1744047;80;20249;-68
2021/04/17 11:01:26;;;;;;;7.90;6.28;;;;;;;8.95;76.12;100779.08;1738242;80;21934;-69
2021/04/17 11:04:00;;;;;;;7.20;6.40;;;;;;;8.82;76.50;100772.19;1740845;80;21204;-68
2021/04/17 11:06:37;;;;;;;7.47;6.37;;;;;;;8.71;76.94;100775.70;1700531;82;21853;-69
2021/04/17 11:09:15;;;;;;;7.00;6.17;;;;;;;8.67;77.29;100783.36;1745714;80;21161;-69
2021/04/17 11:12:00;;;;;;;8.25;7.00;;;;;;;8.65;77.64;100784.14;1706629;83;21311;-70
2021/04/17 11:14:30;;;;;;;7.87;6.50;;;;;;;8.66;77.94;100788.94;1735399;81;22311;-69
2021/04/17 11:17:05;;;;;;;8.63;6.90;;;;;;;8.67;78.36;100791.88;1736947;80;21664;-68
2021/04/17 11:19:36;;;;;;;8.40;6.80;;;;;;;8.76;78.64;100797.64;1739756;81;21175;-70
2021/04/17 11:22:19;;;;;;;8.60;7.33;;;;;;;8.83;78.85;100798.30;1738777;80;21244;-68
2021/04/17 11:25:05;;;;;;;8.43;6.87;;;;;;;8.90;78.96;100792.30;1751607;80;22319;-69
2021/04/17 11:27:35;;;;;;;8.28;7.25;;;;;;;8.99;79.12;100786.06;1743825;80;22150;-69
2021/04/17 11:30:07;;;;;;;8.07;6.37;;;;;;;9.08;79.07;100796.58;1734090;82;21659;-69
2021/04/17 11:32:36;;;;;;;9.30;8.20;;;;;;;9.16;78.76;100793.53;1742721;82;21320;-68
2021/04/17 11:35:07;;;;;;;10.15;8.45;;;;;;;9.09;78.68;100796.36;1739618;80;21196;-69
2021/04/17 11:37:34;;;;;;;9.53;7.90;;;;;;;9.12;78.90;100794.55;1744882;80;21157;-69
2021/04/17 11:40:05;;;;;;;10.43;8.63;;;;;;;9.22;78.88;100789.11;1738272;80;22313;-69
2021/04/17 11:42:33;;;;;;;10.00;8.53;;;;;;;9.30;78.94;100790.02;1742369;81;21747;-69
2021/04/17 11:45:02;;;;;;;11.43;9.73;;;;;;;9.42;78.92;100794.75;1739970;81;21739;-68
2021/04/17 11:47:30;;;;;;;9.60;7.70;;;;;;;9.51;78.72;100789.30;1739402;80;21463;-68
2021/04/17 11:49:59;;;;;;;11.03;9.33;;;;;;;9.57;78.34;100789.63;1738850;80;21431;-68
2021/04/17 11:52:28;;;;;;;11.47;9.63;;;;;;;9.54;77.99;100798.64;1705203;82;21410;-70
2021/04/17 11:54:56;;;;;;;9.90;8.90;;;;;;;9.52;77.87;100789.57;1742525;80;21316;-70